sensor_id;sensor_type;location;lat;lon;timestamp;pressure;altitude;pressure_sealevel;temperature;humidity
11542;BME280;5827;49.482;7.716;2022-12-29T00:01:43;98130.94;;;10.57;100.00
11542;BME280;5827;49.482;7.716;2022-12-29T00:03:45;98127.25;;;10.63;100.00
11542;BME280;5827;49.482;7.716;2022-12-29T00:05:54;98134.75;;;10.66;100.00
11542;BME280;5827;49.482;7.716;2022-12-29T00:07:55;98134.78;;;10.72;100.00
11542;BME280;5827;49.482;7.716;2022-12-29T00:09:58;98131.81;;;10.68;100.00
11542;BME280;5827;49.482;7.716;2022-12-29T00:11:59;98130.75;;;10.69;100.00
11542;BME280;5827;49.482;7.716;2022-12-29T00:14:03;98132.38;;;10.70;100.00
11542;BME280;5827;49.482;7.716;2022-12-29T00:16:22;98121.81;;;10.53;100.00
11542;BME280;5827;49.482;7.716;2022-12-29T00:18:23;98120.22;;;10.57;100.00
11542;BME280;5827;49.482;7.716;2022-12-29T00:20:25;98132.59;;;10.63;100.00
11542;BME280;5827;49.482;7.716;2022-12-29T00:22:44;98105.44;;;10.45;100.00
11542;BME280;5827;49.482;7.716;2022-12-29T00:25:12;98119.72;;;10.60;100.00
11542;BME280;5827;49.482;7.716;2022-12-29T00:27:32;98114.53;;;10.43;100.00
11542;BME280;5827;49.482;7.716;2022-12-29T00:29:52;98110.38;;;10.63;100.00
11542;BME280;5827;49.482;7.716;2022-12-29T00:32:11;98107.16;;;10.66;100.00
11542;BME280;5827;49.482;7.716;2022-12-29T00:34:30;98116.59;;;10.74;100.00
11542;BME280;5827;49.482;7.716;2022-12-29T00:36:49;98110.41;;;10.73;100.00
11542;BME280;5827;49.482;7.716;2022-12-29T00:38:52;98115.50;;;10.75;100.00
11542;BME280;5827;49.482;7.716;2022-12-29T00:41:13;98099.69;;;10.73;100.00
11542;BME280;5827;49.482;7.716;2022-12-29T00:43:32;98101.06;;;10.81;100.00
11542;BME280;5827;49.482;7.716;2022-12-29T00:45:53;98101.06;;;10.81;100.00
11542;BME280;5827;49.482;7.716;2022-12-29T00:47:54;98097.53;;;10.70;100.00
11542;BME280;5827;49.482;7.716;2022-12-29T00:49:56;98100.00;;;10.82;100.00
11542;BME280;5827;49.482;7.716;2022-12-29T00:51:58;98087.38;;;10.72;100.00
11542;BME280;5827;49.482;7.716;2022-12-29T00:53:59;98091.69;;;10.83;100.00
11542;BME280;5827;49.482;7.716;2022-12-29T00:56:01;98092.53;;;10.89;100.00
11542;BME280;5827;49.482;7.716;2022-12-29T00:58:02;98087.72;;;10.86;100.00
11542;BME280;5827;49.482;7.716;2022-12-29T01:00:05;98082.81;;;10.67;100.00
11542;BME280;5827;49.482;7.716;2022-12-29T01:02:09;98089.78;;;10.74;100.00
11542;BME280;5827;49.482;7.716;2022-12-29T01:04:10;98089.34;;;10.92;100.00
11542;BME280;5827;49.482;7.716;2022-12-29T01:06:12;98086.16;;;11.00;100.00
11542;BME280;5827;49.482;7.716;2022-12-29T01:08:13;98073.25;;;10.97;100.00
11542;BME280;5827;49.482;7.716;2022-12-29T01:10:15;98081.81;;;10.89;100.00
11542;BME280;5827;49.482;7.716;2022-12-29T01:12:18;98081.88;;;11.04;100.00
11542;BME280;5827;49.482;7.716;2022-12-29T01:14:39;98066.31;;;11.01;100.00
11542;BME280;5827;49.482;7.716;2022-12-29T01:16:41;98071.16;;;11.04;100.00
11542;BME280;5827;49.482;7.716;2022-12-29T01:18:44;98077.84;;;11.07;100.00
11542;BME280;5827;49.482;7.716;2022-12-29T01:20:46;98090.47;;;11.11;100.00
11542;BME280;5827;49.482;7.716;2022-12-29T01:22:47;98052.94;;;11.22;100.00
11542;BME280;5827;49.482;7.716;2022-12-29T01:24:49;98064.53;;;11.27;100.00
11542;BME280;5827;49.482;7.716;2022-12-29T01:26:51;98055.91;;;11.25;100.00
11542;BME280;5827;49.482;7.716;2022-12-29T01:28:54;98076.59;;;11.35;100.00
11542;BME280;5827;49.482;7.716;2022-12-29T01:30:56;98069.91;;;11.37;100.00
11542;BME280;5827;49.482;7.716;2022-12-29T01:33:01;98065.84;;;11.30;100.00
11542;BME280;5827;49.482;7.716;2022-12-29T01:35:04;98076.56;;;11.25;100.00
11542;BME280;5827;49.482;7.716;2022-12-29T01:37:06;98069.63;;;11.34;100.00
11542;BME280;5827;49.482;7.716;2022-12-29T01:39:08;98073.63;;;11.31;100.00
11542;BME280;5827;49.482;7.716;2022-12-29T01:41:11;98083.81;;;11.24;100.00
11542;BME280;5827;49.482;7.716;2022-12-29T01:43:13;98073.59;;;11.26;100.00
11542;BME280;5827;49.482;7.716;2022-12-29T01:45:17;98082.50;;;11.32;100.00
11542;BME280;5827;49.482;7.716;2022-12-29T01:47:24;98074.66;;;11.10;100.00
11542;BME280;5827;49.482;7.716;2022-12-29T01:49:27;98080.06;;;11.25;100.00
11542;BME280;5827;49.482;7.716;2022-12-29T01:51:32;98071.78;;;11.32;100.00
11542;BME280;5827;49.482;7.716;2022-12-29T01:53:36;98078.44;;;11.29;100.00
11542;BME280;5827;49.482;7.716;2022-12-29T01:55:40;98071.72;;;11.27;100.00
11542;BME280;5827;49.482;7.716;2022-12-29T01:57:46;98086.75;;;11.23;100.00
11542;BME280;5827;49.482;7.716;2022-12-29T01:59:53;98079.81;;;11.32;100.00
11542;BME280;5827;49.482;7.716;2022-12-29T02:01:55;98081.94;;;11.30;100.00
11542;BME280;5827;49.482;7.716;2022-12-29T02:03:57;98078.97;;;11.26;100.00
11542;BME280;5827;49.482;7.716;2022-12-29T02:06:02;98056.47;;;11.27;100.00
11542;BME280;5827;49.482;7.716;2022-12-29T02:08:07;98051.34;;;11.26;100.00
11542;BME280;5827;49.482;7.716;2022-12-29T02:10:09;98047.34;;;11.28;100.00
11542;BME280;5827;49.482;7.716;2022-12-29T02:12:11;98050.56;;;11.25;100.00
11542;BME280;5827;49.482;7.716;2022-12-29T02:14:14;98049.75;;;11.30;100.00
11542;BME280;5827;49.482;7.716;2022-12-29T02:16:26;98052.44;;;11.25;100.00
11542;BME280;5827;49.482;7.716;2022-12-29T02:18:40;98046.00;;;11.31;100.00
11542;BME280;5827;49.482;7.716;2022-12-29T02:23:41;98035.25;;;11.26;100.00
11542;BME280;5827;49.482;7.716;2022-12-29T02:26:14;98042.50;;;11.15;100.00
11542;BME280;5827;49.482;7.716;2022-12-29T02:28:53;98036.88;;;11.27;100.00
11542;BME280;5827;49.482;7.716;2022-12-29T02:31:08;98030.69;;;11.26;100.00
11542;BME280;5827;49.482;7.716;2022-12-29T02:33:23;98024.03;;;11.29;100.00
11542;BME280;5827;49.482;7.716;2022-12-29T02:35:35;98022.94;;;11.30;100.00
11542;BME280;5827;49.482;7.716;2022-12-29T02:37:43;98009.25;;;11.26;100.00
11542;BME280;5827;49.482;7.716;2022-12-29T02:39:55;98033.66;;;11.35;100.00
11542;BME280;5827;49.482;7.716;2022-12-29T02:42:03;98024.81;;;11.19;100.00
11542;BME280;5827;49.482;7.716;2022-12-29T02:44:10;98036.34;;;11.35;100.00
11542;BME280;5827;49.482;7.716;2022-12-29T02:46:18;98010.06;;;11.27;100.00
11542;BME280;5827;49.482;7.716;2022-12-29T02:48:25;98026.69;;;11.34;100.00
11542;BME280;5827;49.482;7.716;2022-12-29T02:50:35;98024.31;;;11.37;100.00
11542;BME280;5827;49.482;7.716;2022-12-29T02:52:42;98017.06;;;11.38;100.00
11542;BME280;5827;49.482;7.716;2022-12-29T02:54:47;98012.72;;;11.27;100.00
11542;BME280;5827;49.482;7.716;2022-12-29T02:56:48;98017.84;;;11.28;100.00
11542;BME280;5827;49.482;7.716;2022-12-29T02:58:50;98003.88;;;11.21;100.00
11542;BME280;5827;49.482;7.716;2022-12-29T03:01:00;98017.56;;;11.14;100.00
11542;BME280;5827;49.482;7.716;2022-12-29T03:03:17;98012.22;;;11.30;100.00
11542;BME280;5827;49.482;7.716;2022-12-29T03:05:43;98012.22;;;11.30;100.00
11542;BME280;5827;49.482;7.716;2022-12-29T03:07:55;98004.97;;;11.30;100.00
11542;BME280;5827;49.482;7.716;2022-12-29T03:10:05;97988.88;;;11.30;100.00
11542;BME280;5827;49.482;7.716;2022-12-29T03:12:18;97999.59;;;11.30;100.00
11542;BME280;5827;49.482;7.716;2022-12-29T03:14:27;98003.66;;;11.28;100.00
11542;BME280;5827;49.482;7.716;2022-12-29T03:16:52;98001.47;;;11.25;100.00
11542;BME280;5827;49.482;7.716;2022-12-29T03:19:00;97984.31;;;11.31;100.00
11542;BME280;5827;49.482;7.716;2022-12-29T03:21:08;97990.75;;;11.25;100.00
11542;BME280;5827;49.482;7.716;2022-12-29T03:23:13;97998.00;;;11.29;100.00
11542;BME280;5827;49.482;7.716;2022-12-29T03:25:17;97988.59;;;11.16;100.00
11542;BME280;5827;49.482;7.716;2022-12-29T03:27:23;97979.75;;;11.31;100.00
11542;BME280;5827;49.482;7.716;2022-12-29T03:29:27;97986.19;;;11.25;100.00
11542;BME280;5827;49.482;7.716;2022-12-29T03:31:30;97977.34;;;11.09;100.00
11542;BME280;5827;49.482;7.716;2022-12-29T03:33:32;97972.25;;;11.23;100.00
11542;BME280;5827;49.482;7.716;2022-12-29T03:35:38;97976.78;;;11.17;100.00
11542;BME280;5827;49.482;7.716;2022-12-29T03:37:45;97995.03;;;11.15;100.00
11542;BME280;5827;49.482;7.716;2022-12-29T03:39:51;97979.75;;;11.11;100.00
11542;BME280;5827;49.482;7.716;2022-12-29T03:41:59;97980.03;;;11.25;100.00
11542;BME280;5827;49.482;7.716;2022-12-29T03:44:02;97977.34;;;11.19;100.00
11542;BME280;5827;49.482;7.716;2022-12-29T03:46:04;97981.06;;;11.08;100.00
11542;BME280;5827;49.482;7.716;2022-12-29T03:48:05;97992.38;;;11.31;100.00
11542;BME280;5827;49.482;7.716;2022-12-29T03:50:08;97980.31;;;11.23;100.00
11542;BME280;5827;49.482;7.716;2022-12-29T03:52:11;97984.59;;;11.19;100.00
11542;BME280;5827;49.482;7.716;2022-12-29T03:54:12;97997.19;;;11.29;100.00
11542;BME280;5827;49.482;7.716;2022-12-29T03:56:14;97985.69;;;11.28;100.00
11542;BME280;5827;49.482;7.716;2022-12-29T03:58:15;97980.31;;;11.28;100.00
11542;BME280;5827;49.482;7.716;2022-12-29T04:00:17;97984.31;;;11.31;100.00
11542;BME280;5827;49.482;7.716;2022-12-29T04:02:19;97978.72;;;11.27;100.00
11542;BME280;5827;49.482;7.716;2022-12-29T04:04:20;97985.94;;;11.32;100.00
11542;BME280;5827;49.482;7.716;2022-12-29T04:06:22;97985.13;;;11.31;100.00
11542;BME280;5827;49.482;7.716;2022-12-29T04:08:25;97977.63;;;11.23;100.00
11542;BME280;5827;49.482;7.716;2022-12-29T04:10:27;97982.72;;;11.35;100.00
11542;BME280;5827;49.482;7.716;2022-12-29T04:12:28;97978.72;;;11.32;100.00
11542;BME280;5827;49.482;7.716;2022-12-29T04:14:30;97979.50;;;11.28;100.00
11542;BME280;5827;49.482;7.716;2022-12-29T04:16:32;97988.34;;;11.33;100.00
11542;BME280;5827;49.482;7.716;2022-12-29T04:18:35;97987.00;;;11.20;100.00
11542;BME280;5827;49.482;7.716;2022-12-29T04:20:37;97977.34;;;11.30;100.00
11542;BME280;5827;49.482;7.716;2022-12-29T04:23:00;97981.09;;;11.29;100.00
11542;BME280;5827;49.482;7.716;2022-12-29T04:25:03;97979.50;;;11.38;100.00
11542;BME280;5827;49.482;7.716;2022-12-29T04:27:05;97977.88;;;11.27;100.00
11542;BME280;5827;49.482;7.716;2022-12-29T04:29:06;97970.09;;;11.30;100.00
11542;BME280;5827;49.482;7.716;2022-12-29T04:31:08;97983.00;;;11.28;100.00
11542;BME280;5827;49.482;7.716;2022-12-29T04:33:09;97975.47;;;11.25;100.00
11542;BME280;5827;49.482;7.716;2022-12-29T04:35:11;97974.16;;;11.28;100.00
11542;BME280;5827;49.482;7.716;2022-12-29T04:37:12;97962.88;;;11.41;100.00
11542;BME280;5827;49.482;7.716;2022-12-29T04:39:14;97971.47;;;11.43;100.00
11542;BME280;5827;49.482;7.716;2022-12-29T04:41:17;97976.56;;;11.34;100.00
11542;BME280;5827;49.482;7.716;2022-12-29T04:43:18;97977.63;;;11.43;100.00
11542;BME280;5827;49.482;7.716;2022-12-29T04:45:22;97965.28;;;11.37;100.00
11542;BME280;5827;49.482;7.716;2022-12-29T04:47:23;97986.22;;;11.45;100.00
11542;BME280;5827;49.482;7.716;2022-12-29T04:49:25;97983.25;;;11.42;100.00
11542;BME280;5827;49.482;7.716;2022-12-29T04:51:26;97969.31;;;11.50;100.00
11542;BME280;5827;49.482;7.716;2022-12-29T04:53:28;97976.53;;;11.50;100.00
11542;BME280;5827;49.482;7.716;2022-12-29T04:55:29;97974.41;;;11.52;100.00
11542;BME280;5827;49.482;7.716;2022-12-29T04:57:32;97986.47;;;11.54;100.00
11542;BME280;5827;49.482;7.716;2022-12-29T04:59:34;97961.81;;;11.47;100.00
11542;BME280;5827;49.482;7.716;2022-12-29T05:01:35;97963.97;;;11.50;100.00
11542;BME280;5827;49.482;7.716;2022-12-29T05:03:37;97965.53;;;11.66;100.00
11542;BME280;5827;49.482;7.716;2022-12-29T05:05:38;97976.28;;;11.56;100.00
11542;BME280;5827;49.482;7.716;2022-12-29T05:07:40;97993.72;;;11.54;100.00
11542;BME280;5827;49.482;7.716;2022-12-29T05:09:42;97984.31;;;11.77;100.00
11542;BME280;5827;49.482;7.716;2022-12-29T05:11:43;97986.47;;;11.69;100.00
11542;BME280;5827;49.482;7.716;2022-12-29T05:13:46;97977.06;;;11.72;100.00
11542;BME280;5827;49.482;7.716;2022-12-29T05:15:49;97982.19;;;11.48;100.00
11542;BME280;5827;49.482;7.716;2022-12-29T05:17:51;97974.69;;;11.65;100.00
11542;BME280;5827;49.482;7.716;2022-12-29T05:19:52;97992.13;;;11.73;100.00
11542;BME280;5827;49.482;7.716;2022-12-29T05:21:54;97995.31;;;11.80;99.08
11542;BME280;5827;49.482;7.716;2022-12-29T05:23:55;97992.66;;;11.90;99.30
11542;BME280;5827;49.482;7.716;2022-12-29T05:25:57;97998.03;;;11.85;99.21
11542;BME280;5827;49.482;7.716;2022-12-29T05:27:58;97985.38;;;11.76;99.63
11542;BME280;5827;49.482;7.716;2022-12-29T05:30:01;97994.53;;;11.69;100.00
11542;BME280;5827;49.482;7.716;2022-12-29T05:32:03;97993.97;;;11.73;99.85
11542;BME280;5827;49.482;7.716;2022-12-29T05:34:05;97999.38;;;11.78;99.90
11542;BME280;5827;49.482;7.716;2022-12-29T05:36:08;98006.06;;;11.65;100.00
11542;BME280;5827;49.482;7.716;2022-12-29T05:38:10;98001.78;;;11.69;100.00
11542;BME280;5827;49.482;7.716;2022-12-29T05:40:12;97998.28;;;11.74;100.00
11542;BME280;5827;49.482;7.716;2022-12-29T05:42:13;97999.38;;;11.78;100.00
11542;BME280;5827;49.482;7.716;2022-12-29T05:44:15;98002.03;;;11.73;100.00
11542;BME280;5827;49.482;7.716;2022-12-29T05:46:18;98004.97;;;11.71;100.00
11542;BME280;5827;49.482;7.716;2022-12-29T05:48:19;98000.97;;;11.68;100.00
11542;BME280;5827;49.482;7.716;2022-12-29T05:50:21;97980.56;;;11.62;100.00
11542;BME280;5827;49.482;7.716;2022-12-29T05:52:22;97992.91;;;11.63;100.00
11542;BME280;5827;49.482;7.716;2022-12-29T05:54:24;97968.50;;;11.70;100.00
11542;BME280;5827;49.482;7.716;2022-12-29T05:56:25;97987.00;;;11.77;100.00
11542;BME280;5827;49.482;7.716;2022-12-29T05:58:27;97974.69;;;11.60;99.82
11542;BME280;5827;49.482;7.716;2022-12-29T06:00:28;97977.06;;;11.67;97.24
11542;BME280;5827;49.482;7.716;2022-12-29T06:02:31;97976.56;;;11.85;96.91
11542;BME280;5827;49.482;7.716;2022-12-29T06:04:33;97965.28;;;11.78;96.64
11542;BME280;5827;49.482;7.716;2022-12-29T06:06:34;97969.81;;;11.73;96.39
11542;BME280;5827;49.482;7.716;2022-12-29T06:08:36;97962.88;;;11.87;96.00
11542;BME280;5827;49.482;7.716;2022-12-29T06:10:37;97960.97;;;11.98;93.59
11542;BME280;5827;49.482;7.716;2022-12-29T06:12:39;97944.31;;;11.95;93.85
11542;BME280;5827;49.482;7.716;2022-12-29T06:14:40;97956.41;;;11.93;93.71
11542;BME280;5827;49.482;7.716;2022-12-29T06:16:42;97947.31;;;11.84;93.43
11542;BME280;5827;49.482;7.716;2022-12-29T06:18:45;97948.63;;;12.02;93.34
11542;BME280;5827;49.482;7.716;2022-12-29T06:20:46;97945.66;;;12.03;93.06
11542;BME280;5827;49.482;7.716;2022-12-29T06:22:48;97959.59;;;12.15;91.58
11542;BME280;5827;49.482;7.716;2022-12-29T06:24:49;97953.13;;;12.16;91.55
11542;BME280;5827;49.482;7.716;2022-12-29T06:26:51;97953.66;;;12.13;92.06
11542;BME280;5827;49.482;7.716;2022-12-29T06:28:53;97954.75;;;12.12;92.07
11542;BME280;5827;49.482;7.716;2022-12-29T06:30:54;97958.78;;;12.15;91.38
11542;BME280;5827;49.482;7.716;2022-12-29T06:32:56;97963.31;;;12.25;90.35
11542;BME280;5827;49.482;7.716;2022-12-29T06:34:58;97974.84;;;12.30;89.93
11542;BME280;5827;49.482;7.716;2022-12-29T06:37:00;97978.63;;;12.24;90.15
11542;BME280;5827;49.482;7.716;2022-12-29T06:39:02;97965.75;;;12.21;90.72
11542;BME280;5827;49.482;7.716;2022-12-29T06:41:04;97967.88;;;12.29;91.36
11542;BME280;5827;49.482;7.716;2022-12-29T06:43:05;97962.78;;;12.17;90.75
11542;BME280;5827;49.482;7.716;2022-12-29T06:45:08;97962.22;;;12.26;90.82
11542;BME280;5827;49.482;7.716;2022-12-29T06:47:10;97964.09;;;12.30;90.41
11542;BME280;5827;49.482;7.716;2022-12-29T06:49:14;97979.94;;;12.27;90.41
11542;BME280;5827;49.482;7.716;2022-12-29T06:51:17;97974.88;;;12.20;90.56
11542;BME280;5827;49.482;7.716;2022-12-29T06:53:18;97973.25;;;12.29;90.05
11542;BME280;5827;49.482;7.716;2022-12-29T06:55:20;97990.13;;;12.35;89.98
11542;BME280;5827;49.482;7.716;2022-12-29T06:57:22;97972.94;;;12.36;89.35
11542;BME280;5827;49.482;7.716;2022-12-29T06:59:24;97976.69;;;12.35;89.10
11542;BME280;5827;49.482;7.716;2022-12-29T07:01:26;97975.63;;;12.31;89.69
11542;BME280;5827;49.482;7.716;2022-12-29T07:03:28;97973.75;;;12.31;89.33
11542;BME280;5827;49.482;7.716;2022-12-29T07:05:29;97987.16;;;12.36;89.14
11542;BME280;5827;49.482;7.716;2022-12-29T07:07:34;97983.66;;;12.41;88.75
11542;BME280;5827;49.482;7.716;2022-12-29T07:09:35;97970.00;;;12.37;88.09
11542;BME280;5827;49.482;7.716;2022-12-29T07:11:37;97979.91;;;12.47;87.10
11542;BME280;5827;49.482;7.716;2022-12-29T07:13:38;97990.34;;;12.49;87.38
11542;BME280;5827;49.482;7.716;2022-12-29T07:15:41;98002.44;;;12.46;88.31
11542;BME280;5827;49.482;7.716;2022-12-29T07:17:42;98000.06;;;12.39;90.33
11542;BME280;5827;49.482;7.716;2022-12-29T07:19:47;97994.47;;;12.26;91.86
11542;BME280;5827;49.482;7.716;2022-12-29T07:21:48;97991.78;;;12.20;93.15
11542;BME280;5827;49.482;7.716;2022-12-29T07:23:51;97990.75;;;12.11;92.97
11542;BME280;5827;49.482;7.716;2022-12-29T07:25:59;97999.84;;;12.26;91.91
11542;BME280;5827;49.482;7.716;2022-12-29T07:28:00;97993.66;;;12.25;91.36
11542;BME280;5827;49.482;7.716;2022-12-29T07:30:03;97991.78;;;12.26;91.42
11542;BME280;5827;49.482;7.716;2022-12-29T07:32:04;97992.84;;;12.25;90.28
11542;BME280;5827;49.482;7.716;2022-12-29T07:34:08;98014.84;;;12.32;89.88
11542;BME280;5827;49.482;7.716;2022-12-29T07:36:09;98007.31;;;12.39;89.21
11542;BME280;5827;49.482;7.716;2022-12-29T07:38:11;98008.88;;;12.50;88.99
11542;BME280;5827;49.482;7.716;2022-12-29T07:40:14;98019.41;;;12.36;89.93
11542;BME280;5827;49.482;7.716;2022-12-29T07:42:15;98010.53;;;12.41;89.39
11542;BME280;5827;49.482;7.716;2022-12-29T07:44:17;98018.59;;;12.36;89.81
11542;BME280;5827;49.482;7.716;2022-12-29T07:46:18;98032.00;;;12.41;89.54
11542;BME280;5827;49.482;7.716;2022-12-29T07:48:20;98019.41;;;12.36;90.20
11542;BME280;5827;49.482;7.716;2022-12-29T07:50:22;98021.25;;;12.46;90.55
11542;BME280;5827;49.482;7.716;2022-12-29T07:52:23;98028.81;;;12.39;92.49
11542;BME280;5827;49.482;7.716;2022-12-29T07:54:25;98030.41;;;12.45;90.66
11542;BME280;5827;49.482;7.716;2022-12-29T07:56:28;98028.00;;;12.38;90.67
11542;BME280;5827;49.482;7.716;2022-12-29T07:58:29;98015.94;;;12.31;92.05
11542;BME280;5827;49.482;7.716;2022-12-29T08:00:31;98023.16;;;12.35;92.85
11542;BME280;5827;49.482;7.716;2022-12-29T08:02:32;98025.06;;;12.30;94.68
11542;BME280;5827;49.482;7.716;2022-12-29T08:04:34;98024.81;;;12.21;95.72
11542;BME280;5827;49.482;7.716;2022-12-29T08:06:36;98030.22;;;12.11;97.46
11542;BME280;5827;49.482;7.716;2022-12-29T08:08:38;98025.41;;;11.98;98.63
11542;BME280;5827;49.482;7.716;2022-12-29T08:10:39;98027.78;;;12.09;97.66
11542;BME280;5827;49.482;7.716;2022-12-29T08:12:42;98019.22;;;12.07;98.33
11542;BME280;5827;49.482;7.716;2022-12-29T08:14:44;98012.75;;;12.03;98.59
11542;BME280;5827;49.482;7.716;2022-12-29T08:16:46;98024.84;;;12.06;98.51
11542;BME280;5827;49.482;7.716;2022-12-29T08:18:47;98033.72;;;12.06;97.67
11542;BME280;5827;49.482;7.716;2022-12-29T08:20:49;98021.84;;;12.23;96.95
11542;BME280;5827;49.482;7.716;2022-12-29T08:22:50;98029.66;;;12.29;95.96
11542;BME280;5827;49.482;7.716;2022-12-29T08:24:52;98024.28;;;12.29;96.36
11542;BME280;5827;49.482;7.716;2022-12-29T08:26:53;98041.47;;;12.23;95.53
11542;BME280;5827;49.482;7.716;2022-12-29T08:28:56;98044.16;;;12.28;96.09
11542;BME280;5827;49.482;7.716;2022-12-29T08:30:58;98038.78;;;12.28;96.02
11542;BME280;5827;49.482;7.716;2022-12-29T08:33:00;98051.41;;;12.33;95.10
11542;BME280;5827;49.482;7.716;2022-12-29T08:35:02;98029.91;;;12.23;95.77
11542;BME280;5827;49.482;7.716;2022-12-29T08:37:04;98060.03;;;12.14;96.54
11542;BME280;5827;49.482;7.716;2022-12-29T08:39:05;98054.38;;;12.16;97.85
11542;BME280;5827;49.482;7.716;2022-12-29T08:41:07;98049.25;;;12.25;98.02
11542;BME280;5827;49.482;7.716;2022-12-29T08:43:10;98053.28;;;12.17;98.70
11542;BME280;5827;49.482;7.716;2022-12-29T08:45:13;98056.81;;;12.07;99.64
11542;BME280;5827;49.482;7.716;2022-12-29T08:47:14;98052.50;;;12.11;99.88
11542;BME280;5827;49.482;7.716;2022-12-29T08:49:16;98042.56;;;12.12;99.15
11542;BME280;5827;49.482;7.716;2022-12-29T08:51:17;98045.78;;;12.19;99.79
11542;BME280;5827;49.482;7.716;2022-12-29T08:53:19;98041.47;;;12.13;100.00
11542;BME280;5827;49.482;7.716;2022-12-29T08:55:23;98040.72;;;11.92;100.00
11542;BME280;5827;49.482;7.716;2022-12-29T08:57:25;98044.19;;;12.08;100.00
11542;BME280;5827;49.482;7.716;2022-12-29T08:59:26;98053.03;;;12.08;99.50
11542;BME280;5827;49.482;7.716;2022-12-29T09:01:29;98046.06;;;12.07;99.83
11542;BME280;5827;49.482;7.716;2022-12-29T09:03:31;98047.41;;;12.15;99.69
11542;BME280;5827;49.482;7.716;2022-12-29T09:05:32;98047.63;;;12.18;99.02
11542;BME280;5827;49.482;7.716;2022-12-29T09:07:34;98050.63;;;12.12;98.91
11542;BME280;5827;49.482;7.716;2022-12-29T09:09:35;98052.78;;;12.10;99.62
11542;BME280;5827;49.482;7.716;2022-12-29T09:11:37;98054.91;;;12.13;99.31
11542;BME280;5827;49.482;7.716;2022-12-29T09:13:39;98070.72;;;12.30;98.94
11542;BME280;5827;49.482;7.716;2022-12-29T09:15:41;98079.09;;;12.08;99.80
11542;BME280;5827;49.482;7.716;2022-12-29T09:17:44;98071.56;;;12.10;100.00
11542;BME280;5827;49.482;7.716;2022-12-29T09:19:46;98061.63;;;12.10;100.00
11542;BME280;5827;49.482;7.716;2022-12-29T09:21:47;98060.31;;;11.98;100.00
11542;BME280;5827;49.482;7.716;2022-12-29T09:23:49;98069.41;;;12.17;100.00
11542;BME280;5827;49.482;7.716;2022-12-29T09:25:50;98075.06;;;12.15;100.00
11542;BME280;5827;49.482;7.716;2022-12-29T09:27:52;98077.72;;;12.20;100.00
11542;BME280;5827;49.482;7.716;2022-12-29T09:29:54;98079.88;;;12.29;100.00
11542;BME280;5827;49.482;7.716;2022-12-29T09:31:56;98089.00;;;12.38;100.00
11542;BME280;5827;49.482;7.716;2022-12-29T09:33:58;98082.84;;;12.17;100.00
11542;BME280;5827;49.482;7.716;2022-12-29T09:36:00;98089.00;;;12.28;100.00
11542;BME280;5827;49.482;7.716;2022-12-29T09:38:02;98095.97;;;12.34;100.00
11542;BME280;5827;49.482;7.716;2022-12-29T09:40:05;98083.03;;;12.46;99.32
11542;BME280;5827;49.482;7.716;2022-12-29T09:42:13;98102.97;;;12.30;99.52
11542;BME280;5827;49.482;7.716;2022-12-29T09:44:22;98102.13;;;12.44;99.61
11542;BME280;5827;49.482;7.716;2022-12-29T09:46:26;98104.28;;;12.48;99.62
11542;BME280;5827;49.482;7.716;2022-12-29T09:48:31;98103.72;;;12.51;99.17
11542;BME280;5827;49.482;7.716;2022-12-29T09:50:37;98114.22;;;12.47;98.40
11542;BME280;5827;49.482;7.716;2022-12-29T09:52:46;98107.50;;;12.44;99.25
11542;BME280;5827;49.482;7.716;2022-12-29T09:54:53;98108.03;;;12.41;98.69
11542;BME280;5827;49.482;7.716;2022-12-29T09:56:56;98104.56;;;12.41;99.07
11542;BME280;5827;49.482;7.716;2022-12-29T09:59:00;98112.88;;;12.39;99.10
11542;BME280;5827;49.482;7.716;2022-12-29T10:01:05;98109.66;;;12.32;99.99
11542;BME280;5827;49.482;7.716;2022-12-29T10:03:13;98108.84;;;12.37;100.00
11542;BME280;5827;49.482;7.716;2022-12-29T10:05:27;98106.19;;;12.42;99.75
11542;BME280;5827;49.482;7.716;2022-12-29T10:07:38;98105.63;;;12.40;99.33
11542;BME280;5827;49.482;7.716;2022-12-29T10:09:46;98107.53;;;12.39;99.62
11542;BME280;5827;49.482;7.716;2022-12-29T10:12:06;98112.38;;;12.37;100.00
11542;BME280;5827;49.482;7.716;2022-12-29T10:14:18;98086.56;;;12.36;100.00
11542;BME280;5827;49.482;7.716;2022-12-29T10:16:32;98106.72;;;12.29;99.78
11542;BME280;5827;49.482;7.716;2022-12-29T10:18:49;98101.91;;;12.26;99.59
11542;BME280;5827;49.482;7.716;2022-12-29T10:20:58;98108.84;;;12.32;99.98
11542;BME280;5827;49.482;7.716;2022-12-29T10:23:25;98109.16;;;12.25;99.29
11542;BME280;5827;49.482;7.716;2022-12-29T10:25:32;98105.91;;;12.23;99.43
11542;BME280;5827;49.482;7.716;2022-12-29T10:27:35;98118.81;;;12.26;99.79
11542;BME280;5827;49.482;7.716;2022-12-29T10:29:40;98117.75;;;12.22;100.00
11542;BME280;5827;49.482;7.716;2022-12-29T10:31:44;98136.28;;;12.24;100.00
11542;BME280;5827;49.482;7.716;2022-12-29T10:33:49;98137.91;;;12.19;100.00
11542;BME280;5827;49.482;7.716;2022-12-29T10:35:52;98120.72;;;12.05;100.00
11542;BME280;5827;49.482;7.716;2022-12-29T10:37:58;98113.19;;;11.87;100.00
11542;BME280;5827;49.482;7.716;2022-12-29T10:40:13;98115.88;;;11.92;100.00
11542;BME280;5827;49.482;7.716;2022-12-29T10:42:24;98111.03;;;11.89;100.00
11542;BME280;5827;49.482;7.716;2022-12-29T10:44:29;98107.00;;;11.86;100.00
11542;BME280;5827;49.482;7.716;2022-12-29T10:46:35;98110.44;;;11.77;100.00
11542;BME280;5827;49.482;7.716;2022-12-29T10:48:37;98103.19;;;11.77;100.00
11542;BME280;5827;49.482;7.716;2022-12-29T10:50:39;98105.66;;;11.84;100.00
11542;BME280;5827;49.482;7.716;2022-12-29T10:52:43;98112.13;;;11.98;100.00
11542;BME280;5827;49.482;7.716;2022-12-29T10:54:49;98109.94;;;11.95;100.00
11542;BME280;5827;49.482;7.716;2022-12-29T10:56:54;98119.09;;;12.04;100.00
11542;BME280;5827;49.482;7.716;2022-12-29T11:01:18;98136.81;;;11.85;100.00
11542;BME280;5827;49.482;7.716;2022-12-29T11:03:43;98132.19;;;11.60;100.00
11542;BME280;5827;49.482;7.716;2022-12-29T11:05:52;98130.81;;;11.52;100.00
11542;BME280;5827;49.482;7.716;2022-12-29T11:07:59;98132.41;;;11.43;100.00
11542;BME280;5827;49.482;7.716;2022-12-29T11:10:18;98129.69;;;11.33;100.00